Time,TemperatureF,DewpointF,PressureIn,WindDirection,WindDirectionDegrees,WindSpeedMPH,WindSpeedGustMPH,Humidity,HourlyPrecipIn,Conditions,Clouds,dailyrainin,SolarRadiationWatts/m^2,SoftwareType,DateUTC
2016-02-11 00:02:00,10.6,3.9,30.15,WNW,300,0.0,2.0,74,-99.99,,,-99.99,0.2,1-wire,2016-02-11 06:02:00,
2016-02-11 00:07:00,10.7,3.9,30.15,WNW,300,0.0,2.0,73,-99.99,,,-99.99,0.0,1-wire,2016-02-11 06:07:00,
2016-02-11 00:17:00,10.4,3.7,30.15,NW,318,1.0,2.0,74,-99.99,,,-99.99,0.0,1-wire,2016-02-11 06:17:00,
2016-02-11 00:22:00,10.1,3.6,30.15,NW,318,1.0,3.0,75,-99.99,,,-99.99,0.0,1-wire,2016-02-11 06:22:00,
2016-02-11 00:28:00,10.1,3.7,30.15,NW,317,0.0,2.0,75,-99.99,,,-99.99,0.0,1-wire,2016-02-11 06:28:00,
2016-02-11 00:38:00,10.3,3.8,30.16,NW,317,0.0,0.0,74,-99.99,,,-99.99,0.0,1-wire,2016-02-11 06:38:00,
2016-02-11 00:43:00,10.0,3.8,30.17,NW,322,0.0,1.0,76,-99.99,,,-99.99,0.0,1-wire,2016-02-11 06:43:00,
2016-02-11 00:48:00,9.9,3.7,30.17,NW,322,0.0,2.0,75,-99.99,,,-99.99,0.0,1-wire,2016-02-11 06:48:00,
2016-02-11 00:53:00,10.0,3.8,30.17,NW,322,0.0,2.0,75,-99.99,,,-99.99,0.2,1-wire,2016-02-11 06:53:00,
2016-02-11 00:58:00,10.0,3.7,30.17,NW,318,0.0,0.0,75,-99.99,,,-99.99,0.0,1-wire,2016-02-11 06:58:00,
2016-02-11 01:03:00,9.5,3.6,30.17,NW,318,0.0,0.0,76,-99.99,,,-99.99,0.0,1-wire,2016-02-11 07:03:00,
2016-02-11 01:08:00,9.5,3.6,30.17,NW,318,1.0,2.0,76,-99.99,,,-99.99,0.0,1-wire,2016-02-11 07:08:00,
2016-02-11 01:13:00,9.5,3.5,30.17,NW,318,0.0,2.0,76,-99.99,,,-99.99,0.0,1-wire,2016-02-11 07:13:00,
2016-02-11 01:18:00,9.6,3.5,30.17,NW,318,0.0,0.0,76,-99.99,,,-99.99,0.0,1-wire,2016-02-11 07:18:00,
2016-02-11 01:23:00,9.0,3.3,30.17,NW,318,2.0,4.0,77,-99.99,,,-99.99,0.0,1-wire,2016-02-11 07:23:00,
2016-02-11 01:28:00,9.2,3.8,30.17,NW,318,0.0,0.0,78,-99.99,,,-99.99,0.0,1-wire,2016-02-11 07:28:00,
2016-02-11 01:34:00,8.7,3.3,30.17,NW,318,0.0,0.0,78,-99.99,,,-99.99,0.0,1-wire,2016-02-11 07:34:00,
2016-02-11 01:40:00,8.7,3.5,30.17,NNW,330,0.0,0.0,79,-99.99,,,-99.99,0.0,1-wire,2016-02-11 07:40:00,
2016-02-11 01:50:00,8.3,3.1,30.17,NNW,330,0.0,2.0,79,-99.99,,,-99.99,0.0,1-wire,2016-02-11 07:50:00,
2016-02-11 01:56:00,8.3,3.2,30.18,NNW,330,1.0,2.0,79,-99.99,,,-99.99,0.0,1-wire,2016-02-11 07:56:00,
2016-02-11 02:01:00,8.3,3.3,30.17,NNW,330,0.0,2.0,79,-99.99,,,-99.99,0.0,1-wire,2016-02-11 08:01:00,
2016-02-11 02:06:00,8.4,3.3,30.18,NW,326,0.0,2.0,79,-99.99,,,-99.99,0.0,1-wire,2016-02-11 08:06:00,
2016-02-11 02:11:00,8.3,3.3,30.18,NW,326,0.0,2.0,79,-99.99,,,-99.99,0.0,1-wire,2016-02-11 08:11:00,
2016-02-11 02:18:00,8.2,3.3,30.19,NW,326,0.0,0.0,80,-99.99,,,-99.99,0.0,1-wire,2016-02-11 08:18:00,
2016-02-11 02:23:00,8.3,3.4,30.19,NW,326,0.0,0.0,80,-99.99,,,-99.99,0.0,1-wire,2016-02-11 08:23:00,
2016-02-11 02:34:00,8.2,3.3,30.19,NW,326,0.0,0.0,80,-99.99,,,-99.99,0.0,1-wire,2016-02-11 08:34:00,
2016-02-11 02:39:00,8.1,3.2,30.19,NNW,333,0.0,2.0,80,-99.99,,,-99.99,0.1,1-wire,2016-02-11 08:39:00,
2016-02-11 02:44:00,7.9,2.9,30.19,NNW,333,0.0,1.0,80,-99.99,,,-99.99,0.0,1-wire,2016-02-11 08:44:00,
2016-02-11 02:50:00,7.8,2.8,30.19,NNW,330,0.0,0.0,80,-99.99,,,-99.99,0.0,1-wire,2016-02-11 08:50:00,
2016-02-11 02:55:00,7.7,2.8,30.19,NNW,330,0.0,1.0,80,-99.99,,,-99.99,0.0,1-wire,2016-02-11 08:55:00,
2016-02-11 03:00:00,7.9,3.1,30.19,NNW,334,0.0,0.0,80,-99.99,,,-99.99,0.0,1-wire,2016-02-11 09:00:00,
2016-02-11 03:05:00,7.7,3.0,30.19,NNW,334,0.0,2.0,81,-99.99,,,-99.99,0.0,1-wire,2016-02-11 09:05:00,
2016-02-11 03:15:00,7.1,2.7,30.19,NNW,330,1.0,4.0,82,-99.99,,,-99.99,0.0,1-wire,2016-02-11 09:15:00,
2016-02-11 03:20:00,7.1,2.7,30.19,NNW,330,1.0,4.0,82,-99.99,,,-99.99,0.0,1-wire,2016-02-11 09:20:00,
2016-02-11 03:25:00,7.3,2.9,30.19,NNW,330,1.0,2.0,82,-99.99,,,-99.99,0.0,1-wire,2016-02-11 09:25:00,
2016-02-11 03:30:00,7.3,3.0,30.19,NNW,328,0.0,0.0,82,-99.99,,,-99.99,0.0,1-wire,2016-02-11 09:30:00,
2016-02-11 03:35:00,7.2,2.8,30.19,NNW,328,0.0,0.0,81,-99.99,,,-99.99,0.3,1-wire,2016-02-11 09:35:00,
2016-02-11 03:40:00,7.0,2.8,30.19,NNW,328,0.0,1.0,82,-99.99,,,-99.99,0.0,1-wire,2016-02-11 09:40:00,
2016-02-11 03:45:00,6.9,2.8,30.19,NNW,328,1.0,5.0,83,-99.99,,,-99.99,0.0,1-wire,2016-02-11 09:45:00,
2016-02-11 03:50:00,6.7,2.6,30.19,NNW,328,1.0,2.0,83,-99.99,,,-99.99,0.0,1-wire,2016-02-11 09:50:00,
2016-02-11 03:55:00,6.6,2.4,30.19,NNW,328,1.0,3.0,82,-99.99,,,-99.99,0.0,1-wire,2016-02-11 09:55:00,
2016-02-11 04:00:00,6.9,2.5,30.19,NNW,338,2.0,4.0,82,-99.99,,,-99.99,0.0,1-wire,2016-02-11 10:00:00,
2016-02-11 04:05:00,7.2,2.8,30.19,NNW,338,1.0,2.0,82,-99.99,,,-99.99,0.0,1-wire,2016-02-11 10:05:00,
2016-02-11 04:10:00,6.9,2.6,30.20,NNW,338,1.0,3.0,82,-99.99,,,-99.99,0.0,1-wire,2016-02-11 10:10:00,
2016-02-11 04:15:00,6.9,2.6,30.20,NNW,330,1.0,4.0,82,-99.99,,,-99.99,0.0,1-wire,2016-02-11 10:15:00,
2016-02-11 04:20:00,7.2,2.8,30.20,NNW,330,0.0,1.0,82,-99.99,,,-99.99,0.0,1-wire,2016-02-11 10:20:00,
2016-02-11 04:25:00,7.5,2.9,30.21,NNW,330,0.0,2.0,81,-99.99,,,-99.99,0.1,1-wire,2016-02-11 10:25:00,
2016-02-11 04:30:00,7.5,2.8,30.20,NNW,342,0.0,2.0,81,-99.99,,,-99.99,0.0,1-wire,2016-02-11 10:30:00,
2016-02-11 04:35:00,7.1,2.5,30.21,NNW,342,0.0,2.0,81,-99.99,,,-99.99,0.0,1-wire,2016-02-11 10:35:00,
2016-02-11 04:45:00,6.7,2.5,30.21,NNW,339,0.0,2.0,82,-99.99,,,-99.99,0.0,1-wire,2016-02-11 10:45:00,
2016-02-11 04:50:00,6.6,2.6,30.21,NNW,339,0.0,0.0,83,-99.99,,,-99.99,0.0,1-wire,2016-02-11 10:50:00,
2016-02-11 04:55:00,6.5,2.5,30.21,NNW,339,0.0,0.0,83,-99.99,,,-99.99,0.0,1-wire,2016-02-11 10:55:00,
2016-02-11 05:00:00,6.3,2.5,30.21,NNW,339,0.0,0.0,84,-99.99,,,-99.99,0.0,1-wire,2016-02-11 11:00:00,
2016-02-11 05:06:00,6.2,2.4,30.21,NNW,339,0.0,1.0,84,-99.99,,,-99.99,0.0,1-wire,2016-02-11 11:06:00,
2016-02-11 05:11:00,6.2,2.5,30.21,NNW,339,0.0,2.0,84,-99.99,,,-99.99,0.0,1-wire,2016-02-11 11:11:00,
2016-02-11 05:17:00,6.3,2.4,30.22,NNW,328,0.0,0.0,84,-99.99,,,-99.99,0.0,1-wire,2016-02-11 11:17:00,
2016-02-11 05:27:00,6.1,2.5,30.22,NNW,333,0.0,0.0,85,-99.99,,,-99.99,0.0,1-wire,2016-02-11 11:27:00,
2016-02-11 05:32:00,6.1,2.6,30.22,NNW,333,0.0,0.0,85,-99.99,,,-99.99,0.0,1-wire,2016-02-11 11:32:00,
2016-02-11 05:37:00,5.4,2.2,30.22,NNW,333,0.0,0.0,86,-99.99,,,-99.99,0.0,1-wire,2016-02-11 11:37:00,
2016-02-11 05:42:00,5.9,2.5,30.22,NNW,330,0.0,0.0,85,-99.99,,,-99.99,0.0,1-wire,2016-02-11 11:42:00,
2016-02-11 05:47:00,5.5,2.2,30.23,NNW,330,0.0,0.0,86,-99.99,,,-99.99,0.1,1-wire,2016-02-11 11:47:00,
2016-02-11 05:52:00,5.3,2.0,30.23,NNW,330,0.0,0.0,86,-99.99,,,-99.99,0.0,1-wire,2016-02-11 11:52:00,
2016-02-11 05:57:00,4.9,1.8,30.23,NNW,333,0.0,0.0,86,-99.99,,,-99.99,0.0,1-wire,2016-02-11 11:57:00,
2016-02-11 06:02:00,5.3,2.3,30.23,NNW,333,0.0,0.0,87,-99.99,,,-99.99,0.1,1-wire,2016-02-11 12:02:00,
2016-02-11 06:07:00,5.0,1.8,30.23,NNW,333,0.0,0.0,86,-99.99,,,-99.99,0.0,1-wire,2016-02-11 12:07:00,
2016-02-11 06:12:00,5.0,1.7,30.23,NW,304,0.0,0.0,86,-99.99,,,-99.99,0.0,1-wire,2016-02-11 12:12:00,
2016-02-11 06:17:00,4.7,1.5,30.23,NW,304,0.0,0.0,86,-99.99,,,-99.99,0.0,1-wire,2016-02-11 12:17:00,
2016-02-11 06:22:00,4.4,1.6,30.24,NW,304,0.0,0.0,88,-99.99,,,-99.99,0.0,1-wire,2016-02-11 12:22:00,
2016-02-11 06:27:00,4.5,1.8,30.24,NW,307,0.0,0.0,88,-99.99,,,-99.99,0.0,1-wire,2016-02-11 12:27:00,
2016-02-11 06:32:00,4.7,2.1,30.25,NW,307,0.0,0.0,89,-99.99,,,-99.99,0.0,1-wire,2016-02-11 12:32:00,
2016-02-11 06:37:00,4.9,2.3,30.25,NW,307,0.0,0.0,89,-99.99,,,-99.99,0.2,1-wire,2016-02-11 12:37:00,
2016-02-11 06:42:00,4.9,2.1,30.25,NW,306,0.0,0.0,88,-99.99,,,-99.99,0.6,1-wire,2016-02-11 12:42:00,
2016-02-11 06:47:00,5.0,2.1,30.25,NW,306,0.0,0.0,87,-99.99,,,-99.99,0.8,1-wire,2016-02-11 12:47:00,
2016-02-11 06:52:00,5.0,2.1,30.25,NW,306,0.0,0.0,87,-99.99,,,-99.99,1.3,1-wire,2016-02-11 12:52:00,
2016-02-11 06:57:00,5.2,2.2,30.25,WNW,298,0.0,0.0,87,-99.99,,,-99.99,1.6,1-wire,2016-02-11 12:57:00,
2016-02-11 07:02:00,4.9,1.9,30.25,WNW,298,0.0,0.0,87,-99.99,,,-99.99,2.6,1-wire,2016-02-11 13:02:00,
2016-02-11 07:07:00,4.7,1.8,30.25,WNW,298,0.0,0.0,87,-99.99,,,-99.99,3.2,1-wire,2016-02-11 13:07:00,
2016-02-11 07:13:00,4.6,2.0,30.25,NW,315,0.0,0.0,88,-99.99,,,-99.99,4.9,1-wire,2016-02-11 13:13:00,